Impacts TAF Board
For situational awareness. Not to be used for flight planning purposes.
IDs:

KBOS - Boston/Logan Intl, MA, US

Issued at 2320 UTC 21 Sep 2021
Updated at 2340 UTC 21 Sep 2021
Potential Impact None Slight Moderate High
Time2254Z 22/00Z 22/01Z 22/02Z 22/03Z 22/04Z 22/05Z 22/06Z 22/07Z 22/08Z 22/09Z 22/10Z 22/11Z 22/12Z>>
Type OBS PRVL PRVL PRVL PRVL PRVL PRVL PRVL PRVL PRVL PRVL PRVL PRVL PRVL
VIS 10 >6 >6 >6 >6 >6 >6 >6 >6 >6 >6 >6 >6 >6
CIG -- 50 50 50 50 50 50 50 15 15 15 8 8 8
Cover SCT BKN BKN BKN BKN BKN BKN BKN OVC OVC OVC OVC OVC OVC
FltCat VFR VFR VFR VFR VFR VFR VFR VFR MVFR MVFR MVFR IFR IFR IFR
WX -- VCSH VCSH VCSH VCSH VCSH VCSH VCSH -- -- -- -- -- --
WDir 110 120 120 120 120 120 120 120 140 140 140 150 150 150
WSpd 7 7 7 7 7 7 7 7 6 6 6 7 7 7
WGst -- -- -- -- -- -- -- -- -- -- -- -- -- --
Raw TAF
KBOS 212320Z 2200/2306 12007KT P6SM VCSH BKN050
  FM220700 14006KT P6SM OVC015
  FM221000 15007KT P6SM OVC008
  FM221600 14008KT P6SM OVC040
  FM230100 14008KT P6SM BKN150


Raw METAR
KBOS 212254Z 11007KT 10SM FEW032 SCT050 SCT250 20/17 A3033 RMK AO2 SLP270 T02000172
KBOS 212154Z 12008KT 10SM FEW049 SCT250 21/17 A3034 RMK AO2 SLP272 T02110172
KBOS 212054Z 08008KT 10SM SCT050 SCT250 22/17 A3034 RMK AO2 SLP274 T02220172 56014

METAR Board
Radar Display
Forecast Discussion
For situational awareness. Not to be used for flight planning purposes.